createdAt,value
2022-09-03T00:00:11.640Z,21.60
2022-09-03T00:02:46.101Z,21.47
2022-09-03T00:05:23.275Z,21.52
2022-09-03T00:07:58.693Z,21.53
2022-09-03T00:10:32.302Z,21.51
2022-09-03T00:13:05.334Z,21.48
2022-09-03T00:15:36.008Z,21.35
2022-09-03T00:18:08.383Z,21.48
2022-09-03T00:20:42.316Z,21.50
2022-09-03T00:23:14.108Z,21.48
2022-09-03T00:25:47.954Z,21.47
2022-09-03T00:28:20.410Z,21.44
2022-09-03T00:30:57.303Z,21.48
2022-09-03T00:33:31.325Z,21.39
2022-09-03T00:36:11.490Z,21.41
2022-09-03T00:38:39.972Z,21.39
2022-09-03T00:41:21.115Z,21.22
2022-09-03T00:44:03.724Z,21.29
2022-09-03T00:46:42.878Z,21.30
2022-09-03T00:49:30.016Z,21.27
2022-09-03T00:52:06.539Z,21.30
2022-09-03T00:54:40.897Z,21.30
2022-09-03T00:57:25.812Z,21.27
2022-09-03T01:00:03.951Z,21.26
2022-09-03T01:02:46.807Z,21.19
2022-09-03T01:05:28.821Z,21.24
2022-09-03T01:08:09.658Z,21.22
2022-09-03T01:10:47.390Z,21.10
2022-09-03T01:13:23.495Z,21.14
2022-09-03T01:16:05.696Z,21.12
2022-09-03T01:18:42.247Z,21.12
2022-09-03T01:21:29.149Z,21.07
2022-09-03T01:24:31.193Z,21.03
2022-09-03T01:27:19.322Z,20.99
2022-09-03T01:29:58.408Z,20.95
2022-09-03T01:32:31.905Z,20.92
2022-09-03T01:35:05.574Z,20.88
2022-09-03T01:37:47.116Z,20.91
2022-09-03T01:40:22.131Z,20.85
2022-09-03T01:43:01.413Z,20.90
2022-09-03T01:45:51.054Z,20.90
2022-09-03T01:48:33.858Z,20.83
2022-09-03T01:51:12.027Z,20.88
2022-09-03T01:54:01.938Z,20.90
2022-09-03T01:56:38.746Z,20.89
2022-09-03T01:59:12.933Z,20.87
2022-09-03T02:01:47.675Z,20.86
2022-09-03T02:04:20.543Z,20.80
2022-09-03T02:06:49.904Z,20.80
2022-09-03T02:09:18.142Z,20.65
2022-09-03T02:11:53.656Z,20.75
2022-09-03T02:14:21.866Z,20.71
2022-09-03T02:16:51.042Z,20.70
2022-09-03T02:19:19.725Z,20.70
2022-09-03T02:21:51.601Z,20.69
2022-09-03T02:24:19.657Z,20.66
2022-09-03T02:26:47.676Z,20.67
2022-09-03T02:29:17.180Z,20.67
2022-09-03T02:31:45.061Z,20.66
2022-09-03T02:34:14.502Z,20.65
2022-09-03T02:36:45.857Z,20.67
2022-09-03T02:39:14.075Z,20.67
2022-09-03T02:41:41.946Z,20.58
2022-09-03T02:44:15.077Z,20.64
2022-09-03T02:46:48.023Z,20.65
2022-09-03T02:49:17.559Z,20.59
2022-09-03T02:51:46.080Z,20.61
2022-09-03T02:54:18.893Z,20.58
2022-09-03T02:56:49.817Z,20.55
2022-09-03T02:59:18.169Z,20.54
2022-09-03T03:01:46.496Z,20.54
2022-09-03T03:04:14.834Z,20.52
2022-09-03T03:06:47.618Z,20.46
2022-09-03T03:09:15.734Z,20.46
2022-09-03T03:11:43.639Z,20.50
2022-09-03T03:14:11.703Z,20.46
2022-09-03T03:16:39.601Z,20.48
2022-09-03T03:19:07.401Z,20.48
2022-09-03T03:21:35.177Z,20.50
2022-09-03T03:24:05.100Z,20.50
2022-09-03T03:26:32.916Z,20.48
2022-09-03T03:29:04.635Z,20.47
2022-09-03T03:31:33.323Z,20.44
2022-09-03T03:34:03.236Z,20.41
2022-09-03T03:36:33.384Z,20.36
2022-09-03T03:39:02.295Z,20.35
2022-09-03T03:41:32.852Z,20.36
2022-09-03T03:44:02.582Z,20.36
2022-09-03T03:46:32.819Z,20.33
2022-09-03T03:49:01.072Z,20.30
2022-09-03T03:51:28.855Z,20.28
2022-09-03T03:54:00.169Z,20.29
2022-09-03T03:56:32.345Z,20.24
2022-09-03T03:59:00.707Z,20.26
2022-09-03T04:01:29.666Z,20.24
2022-09-03T04:03:58.753Z,20.23
2022-09-03T04:06:26.933Z,20.21
2022-09-03T04:08:54.835Z,20.20
2022-09-03T04:11:24.955Z,20.20
2022-09-03T04:13:54.528Z,20.03
2022-09-03T04:16:24.439Z,20.14
2022-09-03T04:18:53.230Z,20.11
2022-09-03T04:21:22.811Z,20.09
2022-09-03T04:23:52.463Z,20.07
2022-09-03T04:26:22.465Z,19.98
2022-09-03T04:28:50.599Z,19.91
2022-09-03T04:31:21.410Z,20.06
2022-09-03T04:33:51.229Z,20.07
2022-09-03T04:36:21.364Z,20.07
2022-09-03T04:38:51.075Z,20.04
2022-09-03T04:41:21.367Z,20.03
2022-09-03T04:43:51.754Z,20.03
2022-09-03T04:46:22.707Z,20.02
2022-09-03T04:48:52.136Z,20.00
2022-09-03T04:51:21.934Z,20.06
2022-09-03T04:53:54.941Z,20.07
2022-09-03T04:56:25.209Z,20.02
2022-09-03T04:58:56.757Z,19.99
2022-09-03T05:01:28.004Z,20.02
2022-09-03T05:03:57.964Z,20.01
2022-09-03T05:06:26.623Z,20.07
2022-09-03T05:08:55.701Z,20.11
2022-09-03T05:11:24.433Z,20.10
2022-09-03T05:13:54.498Z,20.07
2022-09-03T05:16:23.568Z,20.07
2022-09-03T05:18:55.246Z,20.11
2022-09-03T05:21:24.505Z,20.13
2022-09-03T05:23:53.467Z,20.15
2022-09-03T05:26:26.943Z,20.17
2022-09-03T05:28:56.393Z,20.18
2022-09-03T05:31:26.745Z,20.19
2022-09-03T05:33:58.582Z,20.22
2022-09-03T05:36:29.047Z,20.25
2022-09-03T05:38:58.358Z,20.28
2022-09-03T05:41:27.562Z,20.31
2022-09-03T05:43:59.293Z,20.33
2022-09-03T05:46:31.713Z,20.35
2022-09-03T05:49:02.205Z,20.36
2022-09-03T05:51:31.174Z,20.35
2022-09-03T05:53:59.950Z,20.41
2022-09-03T05:56:30.304Z,20.42
2022-09-03T05:59:01.733Z,20.43
2022-09-03T06:01:32.550Z,20.45
2022-09-03T06:04:06.623Z,20.48
2022-09-03T06:06:36.640Z,20.44
2022-09-03T06:09:06.330Z,20.48
2022-09-03T06:11:36.203Z,20.50
2022-09-03T06:14:06.519Z,20.52
2022-09-03T06:16:38.785Z,20.54
2022-09-03T06:19:09.629Z,20.48
2022-09-03T06:21:42.717Z,20.59
2022-09-03T06:24:11.911Z,20.65
2022-09-03T06:26:40.789Z,20.50
2022-09-03T06:29:14.629Z,20.42
2022-09-03T06:31:42.884Z,20.73
2022-09-03T06:34:12.538Z,20.58
2022-09-03T06:36:42.273Z,20.82
2022-09-03T06:39:15.568Z,20.79
2022-09-03T06:41:44.999Z,20.89
2022-09-03T06:44:13.150Z,20.86
2022-09-03T06:46:47.195Z,20.99
2022-09-03T06:49:19.730Z,21.08
2022-09-03T06:51:47.891Z,21.14
2022-09-03T06:54:16.025Z,21.12
2022-09-03T06:56:45.891Z,21.20
2022-09-03T06:59:15.759Z,21.24
2022-09-03T07:01:46.345Z,21.23
2022-09-03T07:04:23.311Z,21.29
2022-09-03T07:06:51.099Z,21.26
2022-09-03T07:09:19.317Z,21.32
2022-09-03T07:11:50.370Z,21.34
2022-09-03T07:14:22.547Z,21.36
2022-09-03T07:16:53.320Z,21.00
2022-09-03T07:19:22.576Z,21.27
2022-09-03T07:21:51.012Z,21.40
2022-09-03T07:24:21.853Z,21.46
2022-09-03T07:26:49.725Z,21.51
2022-09-03T07:29:20.470Z,21.51
2022-09-03T07:31:51.291Z,21.56
2022-09-03T07:34:22.286Z,21.61
2022-09-03T07:36:52.412Z,21.67
2022-09-03T07:39:20.823Z,21.68
2022-09-03T07:41:50.209Z,21.71
2022-09-03T07:44:20.351Z,21.79
2022-09-03T07:46:50.911Z,21.83
2022-09-03T07:49:20.319Z,21.82
2022-09-03T07:51:50.630Z,21.92
2022-09-03T07:54:20.380Z,21.87
2022-09-03T07:56:48.451Z,21.89
2022-09-03T07:59:16.380Z,21.71
2022-09-03T08:01:44.178Z,21.96
2022-09-03T08:04:12.314Z,22.00
2022-09-03T08:06:40.367Z,22.09
2022-09-03T08:09:11.346Z,22.11
2022-09-03T08:11:43.287Z,22.07
2022-09-03T08:14:12.860Z,22.09
2022-09-03T08:16:42.879Z,22.19
2022-09-03T08:19:12.030Z,22.19
2022-09-03T08:21:41.765Z,22.27
2022-09-03T08:24:11.004Z,22.35
2022-09-03T08:26:46.299Z,22.42
2022-09-03T08:29:18.558Z,22.50
2022-09-03T08:31:46.554Z,22.52
2022-09-03T08:34:14.928Z,22.55
2022-09-03T08:36:43.248Z,22.50
2022-09-03T08:39:12.297Z,22.45
2022-09-03T08:42:04.078Z,22.30
2022-09-03T08:44:39.893Z,22.33
2022-09-03T08:47:13.148Z,22.35
2022-09-03T08:49:49.306Z,22.40
2022-09-03T08:52:26.109Z,22.33
2022-09-03T08:54:58.948Z,22.26
2022-09-03T08:57:28.933Z,22.32
2022-09-03T08:59:57.195Z,22.35
2022-09-03T09:02:38.330Z,22.32
2022-09-03T09:05:14.241Z,22.28
2022-09-03T09:07:53.341Z,22.29
2022-09-03T09:10:27.736Z,22.34
2022-09-03T09:13:09.088Z,22.32
2022-09-03T09:15:46.383Z,22.30
2022-09-03T09:18:24.555Z,22.36
2022-09-03T09:20:57.553Z,22.41
2022-09-03T09:23:31.028Z,22.47
2022-09-03T09:26:01.719Z,22.35
2022-09-03T09:28:36.267Z,22.46
2022-09-03T09:31:05.850Z,22.45
2022-09-03T09:33:35.628Z,22.40
2022-09-03T09:36:08.387Z,22.38
2022-09-03T09:38:38.896Z,22.45
2022-09-03T09:41:11.059Z,22.56
2022-09-03T09:43:40.752Z,22.63
2022-09-03T09:46:13.403Z,22.67
2022-09-03T09:48:50.069Z,22.71
2022-09-03T09:51:22.398Z,22.72
2022-09-03T09:54:02.243Z,22.66
2022-09-03T09:56:30.624Z,22.64
2022-09-03T09:59:07.168Z,22.57
2022-09-03T10:01:35.836Z,22.60
2022-09-03T10:04:10.820Z,22.65
2022-09-03T10:06:57.901Z,22.65
2022-09-03T10:09:31.321Z,22.59
2022-09-03T10:12:11.008Z,22.62
2022-09-03T10:14:47.580Z,22.53
2022-09-03T10:17:20.428Z,22.55
2022-09-03T10:20:19.147Z,22.64
2022-09-03T10:22:56.771Z,22.74
2022-09-03T10:25:28.810Z,22.85
2022-09-03T10:27:56.774Z,22.83
2022-09-03T10:30:30.956Z,23.00
2022-09-03T10:33:10.679Z,22.96
2022-09-03T10:35:47.439Z,23.01
2022-09-03T10:38:22.939Z,23.00
2022-09-03T10:40:57.071Z,23.00
2022-09-03T10:43:49.370Z,22.94
2022-09-03T10:46:24.434Z,23.03
2022-09-03T10:49:16.923Z,23.13
2022-09-03T10:51:52.649Z,23.24
2022-09-03T10:54:37.123Z,23.32
2022-09-03T10:57:14.558Z,23.37
2022-09-03T10:59:57.072Z,23.56
2022-09-03T11:02:48.212Z,23.75
2022-09-03T11:05:20.167Z,23.97
2022-09-03T11:07:53.444Z,24.03
2022-09-03T11:10:30.917Z,24.25
2022-09-03T11:13:07.400Z,24.28
2022-09-03T11:15:40.983Z,24.48
2022-09-03T11:18:21.074Z,24.47
2022-09-03T11:20:52.356Z,24.58
2022-09-03T11:23:22.481Z,24.48
2022-09-03T11:25:55.839Z,24.86
2022-09-03T11:28:32.642Z,25.21
2022-09-03T11:31:14.457Z,26.18
2022-09-03T11:33:48.542Z,26.63
2022-09-03T11:36:28.078Z,26.21
2022-09-03T11:38:56.110Z,25.97
2022-09-03T11:41:28.401Z,25.80
2022-09-03T11:43:59.124Z,25.62
2022-09-03T11:46:31.979Z,25.52
2022-09-03T11:49:13.385Z,25.58
2022-09-03T11:51:44.059Z,25.86
2022-09-03T11:54:26.911Z,26.28
2022-09-03T11:57:11.623Z,26.54
2022-09-03T11:59:41.297Z,26.88
2022-09-03T12:02:21.218Z,27.54
2022-09-03T12:05:04.199Z,28.14
2022-09-03T12:07:55.307Z,28.55
2022-09-03T12:10:34.639Z,28.97
2022-09-03T12:13:19.256Z,29.15
2022-09-03T12:16:08.891Z,29.34
2022-09-03T12:18:38.970Z,29.65
2022-09-03T12:21:09.995Z,29.85
2022-09-03T12:23:43.162Z,29.85
2022-09-03T12:26:15.007Z,30.15
2022-09-03T12:28:45.219Z,30.30
2022-09-03T12:31:22.886Z,30.34
2022-09-03T12:33:53.826Z,30.52
2022-09-03T12:36:23.874Z,30.63
2022-09-03T12:39:12.080Z,30.57
2022-09-03T12:41:54.054Z,30.80
2022-09-03T12:44:29.936Z,30.89
2022-09-03T12:49:58.215Z,30.80
2022-09-03T12:52:30.610Z,30.84
2022-09-03T12:55:02.771Z,30.74
2022-09-03T12:57:35.956Z,30.60
2022-09-03T13:00:08.679Z,30.35
2022-09-03T13:02:42.810Z,30.14
2022-09-03T13:05:15.782Z,30.32
2022-09-03T13:07:51.636Z,30.35
2022-09-03T13:10:27.487Z,30.34
2022-09-03T13:13:00.827Z,30.12
2022-09-03T13:15:29.458Z,30.07
2022-09-03T13:18:11.656Z,29.69
2022-09-03T13:20:54.084Z,29.47
2022-09-03T13:23:39.202Z,29.01
2022-09-03T13:26:20.052Z,28.86
2022-09-03T13:29:04.562Z,29.00
2022-09-03T13:31:38.775Z,29.16
2022-09-03T13:34:10.695Z,29.08
2022-09-03T13:36:46.308Z,28.81
2022-09-03T13:39:27.811Z,28.69
2022-09-03T13:42:06.111Z,28.62
2022-09-03T13:44:41.623Z,28.67
2022-09-03T13:47:14.492Z,28.95
2022-09-03T13:50:03.041Z,28.89
2022-09-03T13:52:42.423Z,29.15
2022-09-03T13:55:16.692Z,29.31
2022-09-03T13:57:51.916Z,29.21
2022-09-03T14:00:31.246Z,29.29
2022-09-03T14:03:09.028Z,29.21
2022-09-03T14:05:48.610Z,29.12
2022-09-03T14:08:24.957Z,29.08
2022-09-03T14:11:01.481Z,28.85
2022-09-03T14:13:47.616Z,28.69
2022-09-03T14:16:25.218Z,28.63
2022-09-03T14:18:59.077Z,28.66
2022-09-03T14:21:30.674Z,28.67
2022-09-03T14:24:05.367Z,28.39
2022-09-03T14:26:39.577Z,28.00
2022-09-03T14:29:16.947Z,28.09
2022-09-03T14:32:05.872Z,27.93
2022-09-03T14:34:44.721Z,27.87
2022-09-03T14:37:25.314Z,27.79
2022-09-03T14:39:56.151Z,27.87
2022-09-03T14:42:54.451Z,28.04
2022-09-03T14:45:53.414Z,27.86
2022-09-03T14:48:36.727Z,27.75
2022-09-03T14:51:20.048Z,27.74
2022-09-03T14:54:18.772Z,27.74
2022-09-03T14:56:51.439Z,27.70
2022-09-03T14:59:43.553Z,27.64
2022-09-03T15:02:31.153Z,27.67
2022-09-03T15:05:12.405Z,27.65
2022-09-03T15:07:46.964Z,27.53
2022-09-03T15:10:22.984Z,27.60
2022-09-03T15:12:54.404Z,27.56
2022-09-03T15:15:27.246Z,27.65
2022-09-03T15:18:11.935Z,27.75
2022-09-03T15:20:51.047Z,27.84
2022-09-03T15:23:32.878Z,27.79
2022-09-03T15:26:31.691Z,27.83
2022-09-03T15:29:12.131Z,27.63
2022-09-03T15:31:51.945Z,27.56
2022-09-03T15:34:41.194Z,27.52
2022-09-03T15:37:14.470Z,27.48
2022-09-03T15:39:47.341Z,27.38
2022-09-03T15:42:24.262Z,27.41
2022-09-03T15:44:56.295Z,27.40
2022-09-03T15:47:51.419Z,27.25
2022-09-03T15:50:31.228Z,27.16
2022-09-03T15:53:05.056Z,27.14
2022-09-03T15:55:37.115Z,27.07
2022-09-03T15:58:14.356Z,27.02
2022-09-03T16:00:54.393Z,27.03
2022-09-03T16:03:46.803Z,27.07
2022-09-03T16:06:28.972Z,27.07
2022-09-03T16:09:00.722Z,26.98
2022-09-03T16:11:38.027Z,27.07
2022-09-03T16:14:14.607Z,27.00
2022-09-03T16:17:06.451Z,26.88
2022-09-03T16:19:43.722Z,26.76
2022-09-03T16:22:18.587Z,26.68
2022-09-03T16:24:53.553Z,26.62
2022-09-03T16:27:24.909Z,26.57
2022-09-03T16:30:00.092Z,26.54
2022-09-03T16:32:51.828Z,26.51
2022-09-03T16:35:32.923Z,26.35
2022-09-03T16:38:13.240Z,26.41
2022-09-03T16:40:47.040Z,26.33
2022-09-03T16:43:40.194Z,26.25
2022-09-03T16:46:19.034Z,26.28
2022-09-03T16:48:58.423Z,26.29
2022-09-03T16:51:34.801Z,26.31
2022-09-03T16:54:18.928Z,26.25
2022-09-03T16:56:56.259Z,26.22
2022-09-03T16:59:42.420Z,26.14
2022-09-03T17:02:41.274Z,26.01
2022-09-03T17:05:41.209Z,25.89
2022-09-03T17:08:20.965Z,25.85
2022-09-03T17:10:55.267Z,25.71
2022-09-03T17:13:43.135Z,25.73
2022-09-03T17:16:25.307Z,25.66
2022-09-03T17:18:59.656Z,25.55
2022-09-03T17:21:45.918Z,25.58
2022-09-03T17:24:42.073Z,25.44
2022-09-03T17:27:35.424Z,25.32
2022-09-03T17:30:10.474Z,25.27
2022-09-03T17:32:57.301Z,25.17
2022-09-03T17:35:38.367Z,25.19
2022-09-03T17:38:20.951Z,25.12
2022-09-03T17:41:08.090Z,25.02
2022-09-03T17:43:45.899Z,24.96
2022-09-03T17:46:28.742Z,24.96
2022-09-03T17:48:59.277Z,24.90
2022-09-03T17:51:35.118Z,24.85
2022-09-03T17:54:09.020Z,24.71
2022-09-03T17:56:47.880Z,24.72
2022-09-03T17:59:22.540Z,24.61
2022-09-03T18:01:57.148Z,24.55
2022-09-03T18:04:42.911Z,24.40
2022-09-03T18:07:19.483Z,24.33
2022-09-03T18:09:55.606Z,24.32
2022-09-03T18:12:35.027Z,24.28
2022-09-03T18:15:10.415Z,24.17
2022-09-03T18:17:45.529Z,24.14
2022-09-03T18:20:32.718Z,24.03
2022-09-03T18:23:22.056Z,24.05
2022-09-03T18:26:13.529Z,24.02
2022-09-03T18:29:06.968Z,23.94
2022-09-03T18:31:53.158Z,23.89
2022-09-03T18:34:48.698Z,23.78
2022-09-03T18:37:37.431Z,23.73
2022-09-03T18:40:25.665Z,23.60
2022-09-03T18:43:24.638Z,23.59
2022-09-03T18:49:30.355Z,23.55
2022-09-03T18:52:22.309Z,23.50
2022-09-03T18:55:20.038Z,23.46
2022-09-03T18:58:21.368Z,23.44
2022-09-03T19:01:18.175Z,23.31
2022-09-03T19:04:15.667Z,23.41
2022-09-03T19:07:09.137Z,23.36
2022-09-03T19:10:03.942Z,23.29
2022-09-03T19:13:02.774Z,23.27
2022-09-03T19:15:53.554Z,23.25
2022-09-03T19:18:55.602Z,23.25
2022-09-03T19:21:47.830Z,23.19
2022-09-03T19:24:33.022Z,23.22
2022-09-03T19:27:51.756Z,23.15
2022-09-03T19:30:36.512Z,23.11
2022-09-03T19:33:32.116Z,23.09
2022-09-03T19:36:29.343Z,23.10
2022-09-03T19:39:30.513Z,23.05
2022-09-03T19:42:24.823Z,23.00
2022-09-03T19:45:22.142Z,22.89
2022-09-03T19:48:18.244Z,22.87
2022-09-03T19:51:15.492Z,22.93
2022-09-03T19:54:03.159Z,22.92
2022-09-03T19:56:48.703Z,22.91
2022-09-03T19:59:38.744Z,22.90
2022-09-03T20:02:24.212Z,22.86
2022-09-03T20:05:16.436Z,22.82
2022-09-03T20:08:02.688Z,22.73
2022-09-03T20:10:33.094Z,22.70
2022-09-03T20:13:09.259Z,22.63
2022-09-03T20:15:47.269Z,22.76
2022-09-03T20:18:26.803Z,22.74
2022-09-03T20:21:03.589Z,22.67
2022-09-03T20:23:37.664Z,22.64
2022-09-03T20:26:20.617Z,22.62
2022-09-03T20:29:02.160Z,22.54
2022-09-03T20:31:40.336Z,22.54
2022-09-03T20:34:23.887Z,22.50
2022-09-03T20:36:58.259Z,22.54
2022-09-03T20:39:37.272Z,22.50
2022-09-03T20:42:22.046Z,22.49
2022-09-03T20:44:55.367Z,22.45
2022-09-03T20:47:41.870Z,22.50
2022-09-03T20:50:22.286Z,22.48
2022-09-03T20:53:02.073Z,22.43
2022-09-03T20:55:34.454Z,22.41
2022-09-03T20:58:11.211Z,22.39
2022-09-03T21:00:50.123Z,22.35
2022-09-03T21:03:22.743Z,22.38
2022-09-03T21:06:04.911Z,22.30
2022-09-03T21:08:53.517Z,22.32
2022-09-03T21:11:35.548Z,22.30
2022-09-03T21:14:19.335Z,22.28
2022-09-03T21:17:00.161Z,22.24
2022-09-03T21:19:41.735Z,22.22
2022-09-03T21:22:22.645Z,22.18
2022-09-03T21:24:54.791Z,22.18
2022-09-03T21:27:27.667Z,22.22
2022-09-03T21:30:01.391Z,22.18
2022-09-03T21:32:38.707Z,22.17
2022-09-03T21:35:14.235Z,22.15
2022-09-03T21:37:50.813Z,22.15
2022-09-03T21:40:24.400Z,22.11
2022-09-03T21:42:59.752Z,22.08
2022-09-03T21:45:35.177Z,22.09
2022-09-03T21:48:09.882Z,22.05
2022-09-03T21:50:47.417Z,22.01
2022-09-03T21:53:22.050Z,21.97
2022-09-03T21:56:06.573Z,21.95
2022-09-03T21:58:48.296Z,21.94
2022-09-03T22:01:23.526Z,21.93
2022-09-03T22:03:51.530Z,21.93
2022-09-03T22:06:26.655Z,21.92
2022-09-03T22:09:04.156Z,21.89
2022-09-03T22:11:41.222Z,21.90
2022-09-03T22:14:13.722Z,21.88
2022-09-03T22:16:48.597Z,21.83
2022-09-03T22:19:16.543Z,21.73
2022-09-03T22:21:59.327Z,21.83
2022-09-03T22:24:39.807Z,21.79
2022-09-03T22:27:18.538Z,21.69
2022-09-03T22:29:54.112Z,21.75
2022-09-03T22:32:40.492Z,21.75
2022-09-03T22:35:23.807Z,21.68
2022-09-03T22:38:07.370Z,21.75
2022-09-03T22:40:52.168Z,21.73
2022-09-03T22:43:36.695Z,21.75
2022-09-03T22:46:12.285Z,21.76
2022-09-03T22:49:07.768Z,21.75
2022-09-03T22:51:47.499Z,21.76
2022-09-03T22:54:34.378Z,21.74
2022-09-03T22:57:04.080Z,21.70
2022-09-03T22:59:36.815Z,21.70
2022-09-03T23:02:14.096Z,21.67
2022-09-03T23:04:52.029Z,21.67
2022-09-03T23:07:25.394Z,21.61
2022-09-03T23:09:58.333Z,21.61
2022-09-03T23:12:36.149Z,21.62
2022-09-03T23:15:06.862Z,21.62
2022-09-03T23:17:41.773Z,21.61
2022-09-03T23:20:17.709Z,21.59
2022-09-03T23:22:59.338Z,21.57
2022-09-03T23:25:33.284Z,21.55
2022-09-03T23:28:03.913Z,21.54
2022-09-03T23:30:31.750Z,21.54
2022-09-03T23:33:01.247Z,21.50
2022-09-03T23:35:36.117Z,21.32
2022-09-03T23:38:14.369Z,21.49
2022-09-03T23:40:47.458Z,21.48
2022-09-03T23:43:47.571Z,21.48
2022-09-03T23:46:20.686Z,21.49
2022-09-03T23:49:28.875Z,21.45
2022-09-03T23:52:28.538Z,21.44
2022-09-03T23:55:07.663Z,21.42
2022-09-03T23:57:39.716Z,21.42
